• Join FlightAware (Why Join?)
  • Login
  • US Flag 
08:50PM EDT


 

Airport Tracker/Info


-or-


 

Live Flight TrackerFlight Track Log ✈ QLK101D ✈ 27-Apr-2013 ✈ YCFS - YSSY / SYD

Flight Track Log - Related Links

Times and Time Zones

All times are in EDT time to prevent confusion due to time zone crossing. See the QLK101D flight status page for this flight to view local times or setup timezone preferences in your user account.

Time Position Orientation Groundspeed Altitude Reporting Facility
EDT Latitude Longitude Course Direction KTS MPH feet Rate Location/Type
04:38PM -30.4069 153.0410 212° Southwest 22,000  Level Aus ATC (Calculated)
04:38PM -30.4542 153.0028 211° Southwest 22,000 -7,260 Level Aus ATC (Calculated)
04:40PM -30.5662 152.9245 216° Southwest 269 310 9,200 -3,780 Descending Aus ATC (RADAR)
04:41PM -30.6612 152.8456 216° Southwest 283 326 11,800 1,680 Climbing Aus ATC (RADAR)
04:42PM -30.6990 152.8147 215° Southwest 284 327 12,700 1,380 Climbing Aus ATC (RADAR)
04:43PM -30.7647 152.7590 216° Southwest 292 336 14,000 1,200 Climbing Aus ATC (RADAR)
04:44PM -30.8627 152.6794 215° Southwest 308 354 15,600 1,140 Climbing Aus ATC (RADAR)
04:45PM -30.9094 152.6406 215° Southwest 311 358 16,400 1,140 Climbing Aus ATC (RADAR)
04:46PM -30.9863 152.5778 215° Southwest 312 359 17,600 960 Climbing Aus ATC (RADAR)
04:47PM -31.0859 152.4943 216° Southwest 312 359 18,900 900 Climbing Aus ATC (RADAR)
04:48PM -31.1404 152.4498 215° Southwest 319 367 19,600 960 Climbing Aus ATC (RADAR)
04:49PM -31.2173 152.3850 216° Southwest 318 366 20,700 900 Climbing Aus ATC (RADAR)
04:51PM -31.3351 152.2879 215° Southwest 315 362 22,200 600 Climbing Aus ATC (RADAR)
04:51PM -31.3838 152.2471 216° Southwest 326 375 22,200  Level Aus ATC (RADAR)
04:53PM -31.4671 152.1770 216° Southwest 345 397 22,200  Level Aus ATC (RADAR)
04:54PM -31.5468 152.1107 215° Southwest 352 405 22,200  Level Aus ATC (RADAR)
04:55PM -31.6346 152.0369 216° Southwest 359 413 22,200  Level Aus ATC (RADAR)
04:56PM -31.7229 151.9633 215° Southwest 361 415 22,200  Level Aus ATC (RADAR)
04:57PM -31.8113 151.8884 216° Southwest 363 418 22,200  Level Aus ATC (RADAR)
04:58PM -31.8962 151.8163 216° Southwest 357 411 22,300  Climbing Aus ATC (RADAR)
04:59PM -31.9824 151.7439 215° Southwest 364 419 22,200 -60 Descending Aus ATC (RADAR)
05:00PM -32.0783 151.6620 216° Southwest 366 421 22,200  Level Aus ATC (RADAR)
05:00PM -32.1125 151.6441 204° Southwest 356 410 22,200  Level Aus ATC (RADAR)
05:01PM -32.1979 151.6148 196° South 360 414 22,200  Level Aus ATC (RADAR)
05:02PM -32.2497 151.5953 198° South 362 417 22,200  Level Aus ATC (RADAR)
05:03PM -32.3376 151.5611 198° South 361 415 22,200  Level Aus ATC (RADAR)
05:04PM -32.4093 151.5331 198° South 360 414 22,200  Level Aus ATC (RADAR)
05:04PM -32.4928 151.4999 199° South 358 412 22,200  Level Aus ATC (RADAR)
05:05PM -32.5722 151.4688 198° South 359 413 22,200  Level Aus ATC (RADAR)
05:06PM -32.6549 151.4362 198° South 360 414 22,200  Level Aus ATC (RADAR)
05:07PM -32.7066 151.4156 198° South 360 414 22,200  Level Aus ATC (RADAR)
05:08PM -32.7937 151.3815 198° South 359 413 22,200 -120 Level Aus ATC (RADAR)
05:08PM -32.8173 151.3721 199° South 357 411 22,100 -900 Descending Aus ATC (RADAR)
05:08PM -32.8675 151.3525 198° South 353 406 21,500 -1,620 Descending Aus ATC (RADAR)
05:09PM -32.9519 151.3183 199° South 349 402 19,800 -1,800 Descending Aus ATC (RADAR)
05:10PM -33.0010 151.2995 198° South 338 389 18,900 -1,800 Descending Aus ATC (RADAR)
05:11PM -33.0830 151.2666 199° South 339 390 17,200 -1,800 Descending Aus ATC (RADAR)
05:11PM -33.1057 151.2578 198° South 339 390 16,800 -1,500 Descending Aus ATC (RADAR)
05:11PM -33.1543 151.2387 198° South 339 390 16,000 -1,380 Descending Aus ATC (RADAR)
05:12PM -33.2362 151.2187 192° South 325 374 14,800 -1,380 Descending Aus ATC (RADAR)
05:13PM -33.3047 151.2166 181° South 327 376 13,700 -1,380 Descending Aus ATC (RADAR)
05:14PM -33.3834 151.2128 182° South 317 365 12,600 -1,320 Descending Aus ATC (RADAR)
05:15PM -33.4358 151.2098 183° South 315 362 11,800 -1,380 Descending Aus ATC (RADAR)
05:16PM -33.5228 151.2044 183° South 277 319 10,300 -1,320 Descending Aus ATC (RADAR)
05:16PM -33.5835 151.2021 182° South 274 315 9,400 -1,140 Descending Aus ATC (RADAR)
05:17PM -33.6462 151.1978 183° South 270 311 8,500 -840 Descending Aus ATC (RADAR)
05:18PM -33.6971 151.2053 173° South 256 295 8,200 -600 Descending Aus ATC (RADAR)
05:19PM -33.7347 151.2317 150° Southeast 259 298 7,800 -660 Descending Aus ATC (RADAR)
05:19PM -33.7951 151.2577 160° South 263 303 7,300 -600 Descending Aus ATC (RADAR)
05:20PM -33.8602 151.2875 159° South 254 292 6,700 -600 Descending Aus ATC (RADAR)
05:21PM -33.9080 151.3112 158° South 259 298 6,300 -600 Descending Aus ATC (RADAR)
05:22PM -33.9440 151.3289 158° South 251 289 6,000 -240 Descending Aus ATC (RADAR)
05:23PM -34.0048 151.3461 167° South 257 296 6,000 -480 Level Aus ATC (RADAR)
05:23PM -34.0610 151.3601 168° South 254 292 5,200 -1,080 Descending Aus ATC (RADAR)
05:24PM -34.1124 151.3388 199° South 241 277 4,300 -1,020 Descending Aus ATC (RADAR)
05:24PM -34.1183 151.3203 249° West 236 272 4,100 -1,140 Descending Aus ATC (RADAR)
05:25PM -34.1269 151.2803 255° West 225 259 3,400 -1,320 Descending Aus ATC (RADAR)
05:26PM -34.0839 151.2253 313° West 217 250 2,100 -1,080 Descending Aus ATC (RADAR)
05:27PM -34.0439 151.2125 345° North 191 220 1,500 -840 Descending Aus ATC (RADAR)
05:28PM -34.0049 151.2029 348° North 149 171 700 -780 Descending Aus ATC (RADAR)
05:28PM -33.9764 151.1954 348° North 128 147 200 -660 Descending Aus ATC (RADAR)